Time;durP1;ratioP1;P1;durP2;ratioP2;P2;SDS_P1;SDS_P2;PMS_P1;PMS_P2;Temp;Humidity;BMP_temperature;BMP_pressure;BME280_temperature;BME280_humidity;BME280_pressure;Samples;Min_cycle;Max_cycle;Signal;HPM_P1;HPM_P2
2023/12/15 11:53:09;;;;;;;412.60;393.53;;;9.40;99.90;;;;;;5067031;27;21108;-79
2023/12/15 11:55:37;;;;;;;403.47;385.63;;;9.60;99.90;;;;;;5068294;28;20458;-80
2023/12/15 11:58:04;;;;;;;392.63;374.43;;;9.60;99.90;;;;;;5068813;28;20519;-78
2023/12/15 12:00:32;;;;;;;433.67;414.47;;;9.60;99.90;;;;;;5068278;28;20446;-77
2023/12/15 12:02:59;;;;;;;397.93;379.57;;;9.60;99.90;;;;;;5068132;28;20538;-82
2023/12/15 12:05:27;;;;;;;356.07;339.47;;;9.60;99.90;;;;;;5068366;28;20473;-78
2023/12/15 12:07:56;;;;;;;326.00;311.53;;;9.50;99.90;;;;;;5069539;28;20478;-81
2023/12/15 12:10:31;;;;;;;312.63;297.33;;;9.50;99.90;;;;;;5068213;28;20523;-79
2023/12/15 12:12:58;;;;;;;293.23;279.40;;;9.50;99.90;;;;;;5067687;28;20454;-83
2023/12/15 12:15:24;;;;;;;308.57;295.47;;;9.40;99.90;;;;;;5068232;28;20451;-83
2023/12/15 12:17:52;;;;;;;308.17;293.50;;;9.40;99.90;;;;;;5068728;28;21012;-80
2023/12/15 12:20:19;;;;;;;315.83;301.03;;;9.40;99.90;;;;;;5069591;28;20454;-77
2023/12/15 12:22:47;;;;;;;295.10;280.50;;;9.40;99.90;;;;;;5067491;28;20446;-78
2023/12/15 12:25:16;;;;;;;308.17;293.97;;;9.30;99.90;;;;;;5068073;28;20472;-83
2023/12/15 12:27:45;;;;;;;340.97;325.27;;;9.30;99.90;;;;;;5067858;28;20541;-79
2023/12/15 12:30:14;;;;;;;340.70;324.60;;;9.40;99.90;;;;;;5067726;28;20964;-78
2023/12/15 12:32:42;;;;;;;334.77;318.83;;;9.50;99.90;;;;;;5067507;28;20447;-78
2023/12/15 12:35:09;;;;;;;321.08;306.08;;;9.60;99.90;;;;;;5067284;28;20563;-80
2023/12/15 12:37:37;;;;;;;287.77;273.10;;;9.60;99.90;;;;;;5067530;28;20239;-80
2023/12/15 12:40:05;;;;;;;282.07;269.07;;;9.70;99.90;;;;;;5067793;28;20457;-78
2023/12/15 12:42:33;;;;;;;254.17;241.60;;;9.70;99.90;;;;;;5067145;28;20482;-78
2023/12/15 12:45:01;;;;;;;267.47;254.03;;;9.80;99.90;;;;;;5067497;28;20450;-79
2023/12/15 12:47:28;;;;;;;213.30;202.80;;;9.80;99.90;;;;;;5067298;28;20457;-78
2023/12/15 12:49:56;;;;;;;222.03;210.83;;;9.80;99.90;;;;;;5067700;28;20996;-78
2023/12/15 12:52:23;;;;;;;224.17;212.53;;;9.80;99.90;;;;;;5060495;28;20542;-78
2023/12/15 12:54:50;;;;;;;221.33;210.43;;;9.90;99.90;;;;;;5053333;28;20447;-78
2023/12/15 12:57:17;;;;;;;213.73;203.17;;;9.90;99.90;;;;;;5053128;28;20543;-78
2023/12/15 12:59:44;;;;;;;238.47;226.43;;;9.80;99.90;;;;;;5053277;28;20454;-78
2023/12/15 13:02:12;;;;;;;197.20;186.60;;;9.90;99.90;;;;;;5052984;28;20565;-78
2023/12/15 13:04:39;;;;;;;222.50;211.43;;;9.80;99.90;;;;;;5053391;28;20526;-78
2023/12/15 13:07:06;;;;;;;236.47;224.73;;;9.80;99.90;;;;;;5033438;28;20452;-78
2023/12/15 13:09:34;;;;;;;209.50;199.53;;;9.90;99.90;;;;;;5033434;28;20452;-78
2023/12/15 13:12:01;;;;;;;152.97;144.33;;;9.80;99.90;;;;;;5033483;28;20859;-78
2023/12/15 13:14:28;;;;;;;159.27;150.10;;;9.80;99.90;;;;;;5032575;28;20958;-78
2023/12/15 13:16:55;;;;;;;142.63;133.53;;;9.90;99.90;;;;;;5031913;28;20961;-78
2023/12/15 13:19:25;;;;;;;151.20;142.07;;;9.90;99.90;;;;;;5032027;28;20860;-78
2023/12/15 13:21:52;;;;;;;165.50;156.03;;;9.90;99.90;;;;;;5032298;28;20472;-78
2023/12/15 13:24:19;;;;;;;175.33;164.63;;;9.90;99.90;;;;;;5032103;28;21026;-77
2023/12/15 13:26:45;;;;;;;167.83;158.33;;;9.80;99.90;;;;;;5032487;28;20448;-77
2023/12/15 13:29:12;;;;;;;169.87;159.07;;;9.80;99.90;;;;;;5032996;28;20550;-77
2023/12/15 13:31:40;;;;;;;163.33;155.03;;;9.70;99.90;;;;;;5033945;28;20452;-77
2023/12/15 13:34:07;;;;;;;180.50;171.10;;;9.60;99.90;;;;;;5033577;28;20447;-77
2023/12/15 13:36:35;;;;;;;209.63;199.47;;;9.60;99.90;;;;;;5033379;28;20448;-77
2023/12/15 13:39:03;;;;;;;198.47;189.10;;;9.60;99.90;;;;;;5033401;28;20931;-77
2023/12/15 13:41:30;;;;;;;211.27;199.67;;;9.50;99.90;;;;;;5033450;28;20534;-77
2023/12/15 13:43:58;;;;;;;226.77;216.07;;;9.50;99.90;;;;;;5033457;28;20459;-77
2023/12/15 13:46:25;;;;;;;239.83;228.93;;;9.40;99.90;;;;;;5033485;28;20808;-77
2023/12/15 13:48:52;;;;;;;256.93;245.93;;;9.40;99.90;;;;;;5033535;28;20455;-77
2023/12/15 13:51:19;;;;;;;243.10;231.30;;;9.40;99.90;;;;;;5033105;28;20488;-77
2023/12/15 13:53:51;;;;;;;238.13;226.43;;;9.40;99.90;;;;;;5033047;28;20857;-77
2023/12/15 13:56:19;;;;;;;247.20;234.97;;;9.40;99.90;;;;;;5033246;28;21010;-77
2023/12/15 13:58:46;;;;;;;283.40;269.63;;;9.30;99.90;;;;;;5032839;28;20471;-77
2023/12/15 14:01:12;;;;;;;290.20;277.23;;;9.30;99.90;;;;;;5032992;28;20571;-77
2023/12/15 14:03:40;;;;;;;284.87;272.17;;;9.20;99.90;;;;;;5032280;28;20502;-77
2023/12/15 14:06:09;;;;;;;309.93;296.87;;;9.20;99.90;;;;;;5032503;28;20507;-77
2023/12/15 14:08:36;;;;;;;309.07;295.77;;;9.20;99.90;;;;;;5032793;28;20452;-77
2023/12/15 14:11:05;;;;;;;284.73;272.33;;;9.20;99.90;;;;;;5032768;28;20535;-77
2023/12/15 14:13:32;;;;;;;280.33;268.00;;;9.20;99.90;;;;;;5032683;28;20448;-77
2023/12/15 14:15:59;;;;;;;272.93;260.80;;;9.10;99.90;;;;;;5032947;28;20893;-77
2023/12/15 14:18:26;;;;;;;286.27;273.97;;;9.10;99.90;;;;;;5032604;28;20452;-77
2023/12/15 14:20:53;;;;;;;299.30;286.90;;;9.10;99.90;;;;;;5033193;28;20455;-77
2023/12/15 14:23:20;;;;;;;300.57;288.37;;;9.10;99.90;;;;;;5032316;28;20492;-77
2023/12/15 14:25:46;;;;;;;305.97;291.80;;;9.10;99.90;;;;;;5032473;28;20832;-77
2023/12/15 14:28:15;;;;;;;316.50;303.27;;;9.00;99.90;;;;;;5032608;28;20526;-77
2023/12/15 14:30:42;;;;;;;336.67;322.47;;;9.00;99.90;;;;;;5032561;28;20478;-76
2023/12/15 14:33:09;;;;;;;305.37;292.43;;;9.00;99.90;;;;;;5032283;28;20450;-76
2023/12/15 14:35:35;;;;;;;310.73;297.70;;;8.90;99.90;;;;;;5032573;28;20535;-76
2023/12/15 14:38:02;;;;;;;293.53;280.53;;;8.90;99.90;;;;;;5032034;28;21015;-76
2023/12/15 14:40:29;;;;;;;276.77;265.13;;;8.90;99.90;;;;;;5032279;28;20510;-76
2023/12/15 14:42:56;;;;;;;285.07;272.43;;;8.80;99.90;;;;;;5031941;28;20476;-76
2023/12/15 14:45:25;;;;;;;299.77;287.57;;;8.80;99.90;;;;;;5032368;28;20520;-76
2023/12/15 14:47:55;;;;;;;298.27;286.20;;;8.80;99.90;;;;;;5032109;28;20448;-76
2023/12/15 14:50:22;;;;;;;318.73;305.30;;;8.80;99.90;;;;;;5032576;28;20523;-76
2023/12/15 14:52:49;;;;;;;326.00;312.30;;;8.70;99.90;;;;;;5031552;28;20470;-77
2023/12/15 14:55:16;;;;;;;311.33;298.37;;;8.60;99.90;;;;;;5032343;28;20874;-76
2023/12/15 14:57:43;;;;;;;331.17;317.00;;;8.60;99.90;;;;;;5032066;28;20454;-76
2023/12/15 15:00:11;;;;;;;323.30;309.10;;;8.60;99.90;;;;;;5032077;28;20451;-76
2023/12/15 15:02:41;;;;;;;332.57;318.90;;;8.60;99.90;;;;;;5031658;28;20476;-76
2023/12/15 15:05:07;;;;;;;343.27;328.80;;;8.60;99.90;;;;;;5031741;28;20464;-76
2023/12/15 15:07:35;;;;;;;323.57;310.63;;;8.60;99.90;;;;;;5031878;28;20534;-77
2023/12/15 15:10:03;;;;;;;334.97;321.30;;;8.60;99.90;;;;;;5032036;28;20917;-76
2023/12/15 15:12:30;;;;;;;342.67;327.60;;;8.50;99.90;;;;;;5031255;28;20460;-76
2023/12/15 15:14:58;;;;;;;343.70;328.90;;;8.50;99.90;;;;;;5030854;28;20495;-77
2023/12/15 15:17:24;;;;;;;347.47;332.70;;;8.50;99.90;;;;;;5031029;28;20454;-76
2023/12/15 15:19:53;;;;;;;356.10;340.37;;;8.50;99.90;;;;;;5031385;28;20484;-76
2023/12/15 15:22:20;;;;;;;363.83;347.87;;;8.50;99.90;;;;;;5031028;28;20475;-76
2023/12/15 15:24:46;;;;;;;352.60;338.00;;;8.40;99.90;;;;;;5031816;28;20610;-76
2023/12/15 15:27:13;;;;;;;328.70;315.03;;;8.40;99.90;;;;;;5031567;28;20448;-76
2023/12/15 15:29:40;;;;;;;339.17;323.97;;;8.40;99.90;;;;;;5031419;28;20447;-76
2023/12/15 15:32:08;;;;;;;342.10;327.60;;;8.40;99.90;;;;;;5031185;28;20546;-76
2023/12/15 15:34:36;;;;;;;358.87;343.23;;;8.40;99.90;;;;;;5031353;28;20448;-76
2023/12/15 15:37:05;;;;;;;360.43;344.27;;;8.40;99.90;;;;;;5031367;28;20538;-76
2023/12/15 15:39:32;;;;;;;377.93;361.97;;;8.30;99.90;;;;;;5031298;28;20448;-76
2023/12/15 15:42:00;;;;;;;374.63;358.00;;;8.30;99.90;;;;;;5031271;28;20886;-76
2023/12/15 15:44:28;;;;;;;369.50;353.17;;;8.30;99.90;;;;;;5031068;28;20462;-76
2023/12/15 15:46:56;;;;;;;377.47;360.87;;;8.20;99.90;;;;;;5031122;28;20478;-76
2023/12/15 15:49:26;;;;;;;369.70;353.30;;;8.20;99.90;;;;;;5031471;28;20458;-76
2023/12/15 15:51:55;;;;;;;376.77;360.17;;;8.20;99.90;;;;;;5031138;28;20830;-76
2023/12/15 15:54:23;;;;;;;378.57;362.17;;;8.10;99.90;;;;;;5030874;28;20459;-76
2023/12/15 15:56:50;;;;;;;388.77;371.87;;;8.10;99.90;;;;;;5031182;28;20454;-76
2023/12/15 15:59:17;;;;;;;400.57;381.57;;;8.10;99.90;;;;;;5031146;28;20477;-76
2023/12/15 16:01:44;;;;;;;388.60;372.27;;;8.10;99.90;;;;;;5031613;28;20453;-76
2023/12/15 16:04:11;;;;;;;354.27;339.93;;;8.10;99.90;;;;;;5031080;28;20848;-76
2023/12/15 16:06:38;;;;;;;325.53;311.10;;;8.10;99.90;;;;;;5030961;28;21002;-76
2023/12/15 16:09:06;;;;;;;309.67;296.10;;;8.10;99.90;;;;;;5031167;28;20548;-76
2023/12/15 16:11:37;;;;;;;276.20;264.57;;;8.10;99.90;;;;;;5031014;28;20510;-76
2023/12/15 16:14:03;;;;;;;264.20;253.43;;;8.20;99.90;;;;;;5030309;28;20507;-76
2023/12/15 16:16:31;;;;;;;230.30;220.47;;;8.10;99.90;;;;;;5030858;28;20451;-76
2023/12/15 16:18:58;;;;;;;197.73;188.73;;;8.10;99.90;;;;;;5031187;28;20456;-76
2023/12/15 16:21:25;;;;;;;165.23;157.53;;;8.10;99.90;;;;;;5029669;28;20542;-76
2023/12/15 16:23:52;;;;;;;157.10;149.80;;;8.10;99.90;;;;;;5049713;28;20996;-76
2023/12/15 16:26:22;;;;;;;147.20;140.43;;;8.10;99.90;;;;;;5050141;28;20460;-76
2023/12/15 16:28:50;;;;;;;123.87;117.93;;;8.10;99.90;;;;;;5052883;28;21009;-76
2023/12/15 16:31:18;;;;;;;130.37;123.23;;;8.10;99.90;;;;;;5054381;28;20454;-76
2023/12/15 16:33:44;;;;;;;140.27;133.37;;;8.00;99.90;;;;;;5053639;28;20544;-76
2023/12/15 16:36:21;;;;;;;126.37;119.83;;;8.00;99.90;;;;;;5053909;28;20825;-76
2023/12/15 16:38:48;;;;;;;96.97;89.27;;;8.00;99.90;;;;;;5053737;28;20447;-76
2023/12/15 16:41:22;;;;;;;87.73;82.73;;;8.00;99.90;;;;;;5053563;28;20964;-76
2023/12/15 16:43:51;;;;;;;78.10;73.57;;;8.00;99.90;;;;;;5053280;28;20481;-76
2023/12/15 16:46:17;;;;;;;44.77;41.77;;;8.00;99.90;;;;;;5053697;28;20541;-76
2023/12/15 16:48:51;;;;;;;31.53;27.00;;;8.00;99.90;;;;;;5053397;28;20543;-76
2023/12/15 16:51:18;;;;;;;17.30;15.90;;;8.00;99.90;;;;;;5053373;28;20465;-76
2023/12/15 16:53:45;;;;;;;21.10;13.57;;;8.10;99.90;;;;;;5053008;28;20450;-76
2023/12/15 16:56:12;;;;;;;16.73;11.10;;;8.10;99.90;;;;;;5053509;28;20486;-76
2023/12/15 16:58:40;;;;;;;22.47;10.70;;;8.10;99.90;;;;;;5053380;28;20450;-76
2023/12/15 17:01:08;;;;;;;19.67;11.90;;;8.00;99.90;;;;;;5053282;28;20486;-76
2023/12/15 17:03:36;;;;;;;18.57;9.50;;;8.00;99.90;;;;;;5052854;28;20511;-76
2023/12/15 17:06:11;;;;;;;18.30;9.80;;;8.00;99.90;;;;;;5053023;28;20453;-76
2023/12/15 17:08:39;;;;;;;25.30;8.00;;;8.00;99.90;;;;;;5053297;28;20631;-76
2023/12/15 17:11:07;;;;;;;16.67;7.73;;;8.00;99.90;;;;;;5053407;28;20485;-76
2023/12/15 17:13:34;;;;;;;18.50;6.80;;;8.10;99.90;;;;;;5052941;28;20453;-76
2023/12/15 17:16:00;;;;;;;14.93;6.23;;;8.00;99.90;;;;;;5053033;28;20534;-76
2023/12/15 17:18:29;;;;;;;19.73;8.00;;;8.10;99.90;;;;;;5052693;28;20515;-76
2023/12/15 17:20:56;;;;;;;18.03;8.07;;;8.20;99.90;;;;;;5053416;28;20550;-76
2023/12/15 17:23:23;;;;;;;21.40;6.97;;;8.10;99.90;;;;;;5052563;28;20561;-76
2023/12/15 17:25:51;;;;;;;18.13;7.63;;;8.10;99.90;;;;;;5053011;28;20503;-76
2023/12/15 17:28:18;;;;;;;15.03;7.23;;;8.10;99.90;;;;;;5053410;28;20463;-76
2023/12/15 17:30:45;;;;;;;19.37;12.33;;;8.00;99.90;;;;;;5053741;28;20863;-76
2023/12/15 17:33:12;;;;;;;19.73;9.33;;;8.00;99.90;;;;;;5052885;28;20477;-76
2023/12/15 17:35:40;;;;;;;21.83;10.00;;;8.00;99.90;;;;;;5053374;28;20454;-76
2023/12/15 17:38:07;;;;;;;17.70;10.40;;;8.00;99.90;;;;;;5053237;28;20457;-76
2023/12/15 17:40:34;;;;;;;16.77;8.63;;;8.00;99.90;;;;;;5053501;28;20484;-75
2023/12/15 17:43:01;;;;;;;22.43;9.53;;;8.00;99.90;;;;;;5052832;28;20474;-75
2023/12/15 17:45:28;;;;;;;23.03;10.03;;;8.00;99.90;;;;;;5053724;28;20452;-76
2023/12/15 17:47:55;;;;;;;20.77;9.57;;;8.00;99.90;;;;;;5052842;28;20456;-76
2023/12/15 17:50:22;;;;;;;27.87;8.77;;;8.00;99.90;;;;;;5053291;28;20535;-76
2023/12/15 17:52:50;;;;;;;20.60;7.67;;;8.00;99.90;;;;;;5052585;28;20516;-75
2023/12/15 17:55:17;;;;;;;14.13;6.77;;;8.00;99.90;;;;;;5053025;28;20454;-75
2023/12/15 17:57:44;;;;;;;16.23;6.17;;;8.00;99.90;;;;;;5052900;28;20515;-75
2023/12/15 18:00:12;;;;;;;16.97;6.93;;;8.00;99.90;;;;;;5052869;28;20821;-75
2023/12/15 18:02:40;;;;;;;15.40;6.50;;;8.00;99.90;;;;;;5052493;28;21030;-75
2023/12/15 18:05:08;;;;;;;12.37;5.50;;;8.00;99.90;;;;;;5052756;28;20452;-75
2023/12/15 18:07:35;;;;;;;13.40;5.30;;;8.00;99.90;;;;;;5052743;28;20507;-75
2023/12/15 18:10:04;;;;;;;12.80;5.00;;;8.00;99.90;;;;;;5052783;28;20533;-75
2023/12/15 18:12:31;;;;;;;14.00;4.70;;;8.00;99.90;;;;;;5052244;28;20955;-75
2023/12/15 18:14:58;;;;;;;20.70;6.37;;;8.00;99.90;;;;;;5052168;28;20458;-75
2023/12/15 18:17:25;;;;;;;13.67;6.40;;;8.00;99.90;;;;;;5052574;28;20448;-75
2023/12/15 18:19:51;;;;;;;15.57;4.53;;;8.00;99.90;;;;;;5052333;28;20453;-75
2023/12/15 18:22:18;;;;;;;13.63;5.70;;;8.00;99.90;;;;;;5052013;28;20451;-72
2023/12/15 18:24:45;;;;;;;10.50;4.20;;;8.00;99.90;;;;;;5052731;28;20450;-72
2023/12/15 18:27:14;;;;;;;13.13;5.13;;;8.00;99.90;;;;;;5051404;28;20460;-72
2023/12/15 18:29:41;;;;;;;17.13;5.93;;;8.00;99.90;;;;;;5052734;28;20867;-72
2023/12/15 18:32:09;;;;;;;14.20;5.67;;;8.00;99.90;;;;;;5052184;28;20942;-72
2023/12/15 18:34:35;;;;;;;13.90;4.53;;;8.00;99.90;;;;;;5052397;28;20451;-73
2023/12/15 18:37:04;;;;;;;17.57;4.80;;;8.00;99.90;;;;;;5052220;28;20447;-72
2023/12/15 18:39:33;;;;;;;20.20;6.40;;;8.00;99.90;;;;;;5052440;28;20450;-72
2023/12/15 18:42:02;;;;;;;13.57;5.80;;;8.10;99.90;;;;;;5052153;28;20819;-72
2023/12/15 18:44:31;;;;;;;17.97;6.10;;;8.10;99.90;;;;;;5052024;28;20482;-72
2023/12/15 18:46:59;;;;;;;21.00;6.03;;;8.10;99.90;;;;;;5051917;28;20547;-72
2023/12/15 18:49:26;;;;;;;16.13;4.80;;;8.00;99.90;;;;;;5052159;28;20444;-72
2023/12/15 18:51:53;;;;;;;13.80;5.33;;;8.00;99.90;;;;;;5051429;28;20455;-72
2023/12/15 18:54:21;;;;;;;15.63;5.50;;;8.00;99.90;;;;;;5051854;28;21019;-72
2023/12/15 18:56:49;;;;;;;17.50;5.10;;;8.10;99.90;;;;;;5051897;28;20449;-74
2023/12/15 18:59:16;;;;;;;15.30;5.30;;;8.10;99.90;;;;;;5052286;28;20860;-75
2023/12/15 19:01:45;;;;;;;11.90;4.47;;;8.10;99.90;;;;;;5052328;28;20455;-75
2023/12/15 19:04:12;;;;;;;15.40;4.80;;;8.10;99.90;;;;;;5051721;28;20482;-74
2023/12/15 19:06:40;;;;;;;11.60;3.87;;;8.10;99.50;;;;;;5051741;28;20462;-74
2023/12/15 19:09:08;;;;;;;10.97;4.43;;;8.10;99.50;;;;;;5051806;28;20521;-74
2023/12/15 19:11:35;;;;;;;12.67;4.00;;;8.00;99.90;;;;;;5052040;28;20541;-74
2023/12/15 19:14:04;;;;;;;13.30;4.47;;;8.00;99.10;;;;;;5051556;28;20447;-74
2023/12/15 19:16:33;;;;;;;8.90;3.17;;;8.10;97.40;;;;;;5051607;28;20457;-74
2023/12/15 19:19:04;;;;;;;12.27;3.60;;;8.10;97.30;;;;;;5051818;28;20455;-74
2023/12/15 19:21:31;;;;;;;14.00;4.13;;;8.10;97.30;;;;;;5051645;28;20462;-74
2023/12/15 19:23:58;;;;;;;13.20;3.60;;;8.10;97.30;;;;;;5051480;28;20893;-74
2023/12/15 19:26:26;;;;;;;10.23;4.27;;;8.10;97.30;;;;;;5051563;28;20533;-73
2023/12/15 19:28:55;;;;;;;10.03;4.07;;;8.20;97.40;;;;;;5051598;28;20461;-73
2023/12/15 19:31:22;;;;;;;11.90;3.37;;;8.10;97.30;;;;;;5051452;28;20451;-73
2023/12/15 19:33:51;;;;;;;14.17;4.30;;;8.10;97.30;;;;;;5051147;28;20536;-73
2023/12/15 19:36:21;;;;;;;14.37;4.87;;;8.10;97.30;;;;;;5052039;28;20469;-73
2023/12/15 19:38:48;;;;;;;16.13;4.40;;;8.10;97.30;;;;;;5051434;28;20452;-73
2023/12/15 19:41:18;;;;;;;9.97;4.17;;;8.10;97.40;;;;;;5051735;28;20520;-73
2023/12/15 19:43:46;;;;;;;19.37;5.60;;;8.00;98.50;;;;;;5051285;28;20823;-73
2023/12/15 19:46:20;;;;;;;11.80;5.27;;;8.10;97.80;;;;;;5051502;28;20452;-73
2023/12/15 19:48:47;;;;;;;17.90;6.00;;;8.00;99.70;;;;;;5051239;28;20456;-74
2023/12/15 19:51:21;;;;;;;14.57;4.43;;;8.00;99.90;;;;;;5051519;28;20464;-74
2023/12/15 19:53:48;;;;;;;13.70;4.97;;;8.00;99.90;;;;;;5051323;28;20789;-74
2023/12/15 19:56:22;;;;;;;13.80;4.93;;;7.90;99.90;;;;;;5051456;28;20948;-74
2023/12/15 19:58:50;;;;;;;14.27;5.40;;;7.90;99.90;;;;;;5051261;28;20977;-73
2023/12/15 20:01:27;;;;;;;13.37;5.73;;;7.90;99.90;;;;;;5051307;28;20504;-73
2023/12/15 20:03:53;;;;;;;17.77;5.97;;;7.90;99.90;;;;;;5053992;28;20478;-74
2023/12/15 20:06:24;;;;;;;12.57;5.20;;;7.90;99.90;;;;;;5055102;28;20872;-72
2023/12/15 20:08:52;;;;;;;21.63;6.32;;;7.90;99.90;;;;;;5056012;28;20448;-72
2023/12/15 20:11:19;;;;;;;20.23;5.90;;;7.90;99.90;;;;;;5057003;28;20201;-72
2023/12/15 20:13:47;;;;;;;15.43;5.77;;;7.90;99.90;;;;;;5056126;28;20547;-73
2023/12/15 20:16:15;;;;;;;16.03;5.30;;;7.90;99.90;;;;;;5056908;28;20450;-73
2023/12/15 20:18:42;;;;;;;23.20;7.00;;;7.90;99.90;;;;;;5056864;28;20446;-73
2023/12/15 20:21:10;;;;;;;15.63;6.47;;;7.90;99.90;;;;;;5056814;28;20454;-73
2023/12/15 20:23:39;;;;;;;14.30;6.50;;;7.90;99.90;;;;;;5055501;28;20479;-73
2023/12/15 20:26:08;;;;;;;24.43;7.90;;;7.80;99.90;;;;;;5056774;28;20457;-73
2023/12/15 20:28:35;;;;;;;12.43;6.57;;;7.80;99.90;;;;;;5056762;28;20457;-73
2023/12/15 20:31:02;;;;;;;16.40;6.10;;;7.80;99.90;;;;;;5057016;28;20460;-72
2023/12/15 20:33:30;;;;;;;17.00;6.30;;;7.80;99.90;;;;;;5055373;28;20447;-73
2023/12/15 20:35:58;;;;;;;16.23;7.10;;;7.80;99.90;;;;;;5057776;28;20450;-72
2023/12/15 20:38:25;;;;;;;20.53;8.70;;;7.80;99.90;;;;;;5056564;28;20456;-72
2023/12/15 20:40:55;;;;;;;21.87;7.90;;;7.70;99.90;;;;;;5056834;28;20534;-73
2023/12/15 20:43:22;;;;;;;21.43;8.33;;;7.70;99.90;;;;;;5055178;28;20479;-73
2023/12/15 20:45:50;;;;;;;18.40;9.30;;;7.70;99.90;;;;;;5056450;28;20491;-73
2023/12/15 20:48:17;;;;;;;19.87;7.90;;;7.70;99.90;;;;;;5056688;28;20483;-73
2023/12/15 20:50:45;;;;;;;21.23;9.30;;;7.60;99.90;;;;;;5056571;28;20454;-73
2023/12/15 20:53:12;;;;;;;21.27;9.27;;;7.60;99.90;;;;;;5055207;28;20924;-73
2023/12/15 20:55:40;;;;;;;16.23;8.10;;;7.60;99.90;;;;;;5056267;28;20460;-73
2023/12/15 20:58:08;;;;;;;14.43;8.20;;;7.60;99.90;;;;;;5056547;28;20934;-72
2023/12/15 21:00:35;;;;;;;18.53;9.73;;;7.60;99.90;;;;;;5056453;28;20450;-73
2023/12/15 21:03:03;;;;;;;24.07;11.00;;;7.60;99.90;;;;;;5055161;28;20549;-73
2023/12/15 21:05:30;;;;;;;27.83;13.57;;;7.60;99.90;;;;;;5056060;28;20487;-73
2023/12/15 21:07:57;;;;;;;24.00;13.33;;;7.60;99.90;;;;;;5056029;28;20454;-72
2023/12/15 21:10:25;;;;;;;22.20;13.43;;;7.60;99.90;;;;;;5056021;28;20456;-72
2023/12/15 21:12:52;;;;;;;28.00;14.03;;;7.60;99.90;;;;;;5054682;28;20453;-73
2023/12/15 21:15:20;;;;;;;17.33;15.50;;;7.60;99.90;;;;;;5055823;28;20928;-73
2023/12/15 21:17:47;;;;;;;19.70;17.30;;;7.50;99.90;;;;;;5055846;28;20463;-73
2023/12/15 21:20:14;;;;;;;23.70;19.23;;;7.60;99.90;;;;;;5056059;28;20455;-73
2023/12/15 21:22:41;;;;;;;25.07;20.40;;;7.50;99.90;;;;;;5054867;28;20509;-73
2023/12/15 21:25:09;;;;;;;26.40;20.80;;;7.50;99.90;;;;;;5055560;28;20481;-73
2023/12/15 21:27:35;;;;;;;24.73;22.63;;;7.50;99.90;;;;;;5055935;28;20450;-73
2023/12/15 21:30:02;;;;;;;30.17;27.10;;;7.50;99.90;;;;;;5055938;28;20479;-73
2023/12/15 21:32:31;;;;;;;29.10;24.53;;;7.50;99.90;;;;;;5054941;28;20872;-73
2023/12/15 21:34:58;;;;;;;29.60;26.70;;;7.60;99.90;;;;;;5055206;28;20934;-73
2023/12/15 21:37:25;;;;;;;32.67;29.20;;;7.50;99.90;;;;;;5055475;28;20504;-73
2023/12/15 21:39:52;;;;;;;32.37;29.23;;;7.50;99.90;;;;;;5055689;28;20444;-73
2023/12/15 21:42:19;;;;;;;35.80;32.70;;;7.50;99.90;;;;;;5054364;28;21047;-73
2023/12/15 21:44:46;;;;;;;31.07;28.77;;;7.50;99.90;;;;;;5055378;28;20830;-72
2023/12/15 21:47:14;;;;;;;32.07;28.97;;;7.50;99.90;;;;;;5055588;28;20538;-72
2023/12/15 21:49:43;;;;;;;34.17;31.07;;;7.50;99.90;;;;;;5055556;28;20450;-73
2023/12/15 21:52:10;;;;;;;32.63;29.77;;;7.50;99.90;;;;;;5054297;28;20544;-73
2023/12/15 21:54:37;;;;;;;35.80;32.90;;;7.50;99.90;;;;;;5053074;28;20445;-72
2023/12/15 21:57:06;;;;;;;33.73;30.83;;;7.50;99.90;;;;;;5052937;28;20450;-73
2023/12/15 21:59:33;;;;;;;34.70;32.13;;;7.50;99.90;;;;;;5052957;28;20657;-73
2023/12/15 22:02:00;;;;;;;34.23;30.60;;;7.50;99.90;;;;;;5052784;28;20457;-73
2023/12/15 22:04:27;;;;;;;36.00;32.57;;;7.50;99.90;;;;;;5052712;28;20503;-73
2023/12/15 22:06:59;;;;;;;36.83;34.00;;;7.50;99.90;;;;;;5052821;28;20460;-73
2023/12/15 22:09:28;;;;;;;41.07;37.57;;;7.50;99.90;;;;;;5052941;28;20825;-73
2023/12/15 22:11:55;;;;;;;43.33;40.47;;;7.50;99.90;;;;;;5052652;28;20548;-73
2023/12/15 22:14:22;;;;;;;39.97;37.00;;;7.50;99.90;;;;;;5052304;28;20481;-73
2023/12/15 22:16:50;;;;;;;35.20;32.47;;;7.50;99.90;;;;;;5052796;28;20456;-72
2023/12/15 22:19:17;;;;;;;38.03;34.67;;;7.50;99.90;;;;;;5052583;28;20933;-73
2023/12/15 22:21:44;;;;;;;32.63;29.40;;;7.50;99.90;;;;;;5052709;28;20541;-73
2023/12/15 22:24:12;;;;;;;30.47;27.20;;;7.50;99.90;;;;;;5052163;28;20984;-73
2023/12/15 22:26:43;;;;;;;28.23;26.00;;;7.50;99.90;;;;;;5051416;28;20487;-73
2023/12/15 22:29:10;;;;;;;29.50;27.10;;;7.50;99.90;;;;;;5052336;28;20504;-73
2023/12/15 22:31:42;;;;;;;32.23;29.53;;;7.50;99.90;;;;;;5052341;28;20465;-73
2023/12/15 22:34:10;;;;;;;39.40;36.47;;;7.50;99.90;;;;;;5052394;28;20545;-73
2023/12/15 22:36:38;;;;;;;30.00;27.00;;;7.50;99.90;;;;;;5052250;28;20504;-73
2023/12/15 22:39:06;;;;;;;27.67;25.43;;;7.50;99.90;;;;;;5052235;28;20452;-73
2023/12/15 22:41:34;;;;;;;25.73;23.93;;;7.50;99.90;;;;;;5052018;28;20458;-73
2023/12/15 22:44:01;;;;;;;24.67;21.93;;;7.50;99.90;;;;;;5051810;28;21067;-72
2023/12/15 22:46:28;;;;;;;40.73;22.70;;;7.50;99.90;;;;;;5052124;28;20624;-73
2023/12/15 22:48:55;;;;;;;20.47;18.33;;;7.50;99.90;;;;;;5052193;28;20532;-73
2023/12/15 22:51:23;;;;;;;22.60;20.07;;;7.50;99.90;;;;;;5051879;28;20557;-73
2023/12/15 22:53:49;;;;;;;23.13;20.70;;;7.50;99.90;;;;;;5051687;28;20963;-72
2023/12/15 22:56:16;;;;;;;24.93;18.93;;;7.50;99.90;;;;;;5051837;28;20447;-73
2023/12/15 22:58:44;;;;;;;27.73;19.60;;;7.40;99.90;;;;;;5051918;28;20443;-73
2023/12/15 23:01:12;;;;;;;25.80;18.50;;;7.50;99.90;;;;;;5051951;28;20450;-73
2023/12/15 23:03:39;;;;;;;23.27;18.70;;;7.50;99.90;;;;;;5051483;28;21007;-73
2023/12/15 23:06:06;;;;;;;19.13;16.63;;;7.40;99.90;;;;;;5051745;28;20479;-73
2023/12/15 23:08:33;;;;;;;17.70;15.87;;;7.40;99.90;;;;;;5051351;28;20451;-73
2023/12/15 23:11:00;;;;;;;21.33;15.57;;;7.40;99.90;;;;;;5051618;28;20549;-73
2023/12/15 23:13:27;;;;;;;21.20;16.30;;;7.40;99.90;;;;;;5051506;28;20461;-73
2023/12/15 23:15:56;;;;;;;21.50;13.47;;;7.40;99.90;;;;;;5051603;28;20449;-73
2023/12/15 23:18:22;;;;;;;21.23;12.40;;;7.40;99.90;;;;;;5051368;28;20451;-73
2023/12/15 23:20:49;;;;;;;20.17;11.03;;;7.40;99.90;;;;;;5051480;28;20461;-72
2023/12/15 23:23:16;;;;;;;17.13;10.10;;;7.50;99.90;;;;;;5050825;28;20460;-72
2023/12/15 23:25:43;;;;;;;19.00;9.90;;;7.50;99.90;;;;;;5051530;28;20478;-72
2023/12/15 23:28:11;;;;;;;20.67;10.77;;;7.50;99.90;;;;;;5051278;28;20492;-75
2023/12/15 23:30:40;;;;;;;20.93;9.50;;;7.50;99.90;;;;;;5051574;28;20480;-75
2023/12/15 23:33:09;;;;;;;19.30;9.10;;;7.50;99.90;;;;;;5051182;28;20515;-73
2023/12/15 23:35:36;;;;;;;16.90;7.00;;;7.50;99.90;;;;;;5051292;28;20471;-75
2023/12/15 23:38:03;;;;;;;19.57;7.60;;;7.50;99.90;;;;;;5051300;28;20444;-74
2023/12/15 23:40:30;;;;;;;18.77;7.33;;;7.60;99.90;;;;;;5051246;28;20463;-75
2023/12/15 23:42:57;;;;;;;18.30;7.77;;;7.60;99.90;;;;;;5051046;28;20452;-75
2023/12/15 23:45:24;;;;;;;12.27;7.33;;;7.60;99.90;;;;;;5051169;28;20474;-75
2023/12/15 23:47:50;;;;;;;10.57;6.50;;;7.70;99.90;;;;;;5051103;28;20546;-75
2023/12/15 23:50:18;;;;;;;15.03;6.40;;;7.60;99.90;;;;;;5051046;28;20486;-75
2023/12/15 23:52:45;;;;;;;16.93;6.83;;;7.60;99.90;;;;;;5050798;28;20550;-75
2023/12/15 23:55:12;;;;;;;17.43;6.43;;;7.70;99.90;;;;;;5051135;28;20526;-75
2023/12/15 23:57:39;;;;;;;22.80;6.97;;;7.70;99.90;;;;;;5051142;28;20840;-75
